Time;durP1;ratioP1;P1;durP2;ratioP2;P2;SDS_P1;SDS_P2;PMS_P1;PMS_P2;Temp;Humidity;BMP_temperature;BMP_pressure;BME280_temperature;BME280_humidity;BME280_pressure;Samples;Min_cycle;Max_cycle;Signal;HPM_P1;HPM_P2
2022/04/12 00:01:33;;;;;;;7.07;2.93;;;4.80;99.90;;;;;;5030886;28;20274;-51
2022/04/12 00:04:00;;;;;;;10.30;3.93;;;4.80;99.90;;;;;;5030076;28;20183;-50
2022/04/12 00:06:26;;;;;;;7.90;3.60;;;4.70;99.90;;;;;;5030843;28;20457;-52
2022/04/12 00:08:52;;;;;;;9.80;3.60;;;4.70;99.90;;;;;;5030860;28;20755;-51
2022/04/12 00:11:17;;;;;;;6.90;3.87;;;4.70;99.90;;;;;;5035732;28;20297;-52
2022/04/12 00:13:43;;;;;;;6.20;3.40;;;4.70;99.90;;;;;;5030035;28;20551;-52
2022/04/12 00:16:09;;;;;;;4.47;3.13;;;4.80;99.90;;;;;;5030744;28;20183;-50
2022/04/12 00:21:18;;;;;;;5.33;3.00;;;4.70;99.90;;;;;;5031739;28;20923;-51
2022/04/12 00:23:44;;;;;;;7.60;3.23;;;4.70;99.90;;;;;;5030191;28;20425;-51
2022/04/12 00:26:10;;;;;;;8.30;3.40;;;4.80;99.90;;;;;;5022135;28;20321;-52
2022/04/12 00:28:35;;;;;;;21.93;4.03;;;4.70;99.90;;;;;;5030308;28;20438;-51
2022/04/12 00:31:02;;;;;;;8.80;3.10;;;4.70;99.90;;;;;;5030282;28;20241;-51
2022/04/12 00:33:29;;;;;;;9.40;3.63;;;4.70;99.90;;;;;;5032887;28;20544;-51
2022/04/12 00:35:56;;;;;;;12.93;3.77;;;4.70;99.90;;;;;;5030200;28;20436;-52
2022/04/12 00:38:25;;;;;;;4.47;3.20;;;4.70;99.90;;;;;;5030068;28;20473;-51
2022/04/12 00:40:51;;;;;;;7.93;3.90;;;4.70;99.90;;;;;;5030259;28;20769;-51
2022/04/12 00:43:19;;;;;;;8.90;3.67;;;4.60;99.90;;;;;;5021737;28;20429;-52
2022/04/12 00:45:45;;;;;;;7.57;3.80;;;4.60;99.90;;;;;;5034837;28;20808;-51
2022/04/12 00:48:11;;;;;;;7.60;3.60;;;4.60;99.90;;;;;;5029478;28;20947;-51
2022/04/12 00:50:37;;;;;;;8.60;4.27;;;4.60;99.90;;;;;;5030260;28;20426;-52
2022/04/12 00:53:04;;;;;;;6.10;3.00;;;4.60;99.90;;;;;;5030033;28;20549;-52
2022/04/12 00:55:30;;;;;;;6.97;3.93;;;4.60;99.90;;;;;;5028126;28;20429;-51
2022/04/12 00:57:56;;;;;;;6.53;3.40;;;4.60;99.90;;;;;;5025764;28;20986;-51
2022/04/12 01:00:23;;;;;;;7.03;3.80;;;4.60;99.90;;;;;;5029781;28;20513;-51
2022/04/12 01:02:49;;;;;;;9.63;3.20;;;4.50;99.90;;;;;;5027962;28;20852;-51
2022/04/12 01:05:15;;;;;;;5.83;3.27;;;4.60;99.90;;;;;;5029714;28;20425;-52
2022/04/12 01:07:43;;;;;;;5.50;3.33;;;4.70;99.90;;;;;;5029699;28;20225;-51
2022/04/12 01:10:09;;;;;;;8.93;4.03;;;4.70;99.90;;;;;;5018437;28;20206;-51
2022/04/12 01:12:39;;;;;;;8.60;3.70;;;4.60;99.90;;;;;;5029240;28;20907;-52
2022/04/12 01:15:19;;;;;;;6.40;3.67;;;4.70;99.90;;;;;;5028947;28;20245;-51
2022/04/12 01:17:46;;;;;;;4.47;3.10;;;4.60;99.90;;;;;;5011823;28;20475;-51
2022/04/12 01:20:13;;;;;;;7.20;3.47;;;4.60;99.90;;;;;;5029161;28;20442;-51
2022/04/12 01:22:55;;;;;;;6.33;2.87;;;4.60;99.90;;;;;;5013275;28;20935;-52
2022/04/12 01:25:23;;;;;;;11.17;3.70;;;4.60;99.90;;;;;;5028319;28;20421;-51
2022/04/12 01:27:48;;;;;;;4.43;2.80;;;4.60;99.90;;;;;;5019432;28;20973;-51
2022/04/12 01:30:14;;;;;;;6.00;3.97;;;4.60;99.90;;;;;;5011277;28;20520;-51
2022/04/12 01:32:40;;;;;;;7.30;4.03;;;4.60;99.90;;;;;;5009745;28;20285;-51
2022/04/12 01:35:06;;;;;;;8.70;3.57;;;4.60;99.90;;;;;;5025572;28;20524;-51
2022/04/12 01:37:32;;;;;;;5.30;3.40;;;4.60;99.90;;;;;;5010933;28;20207;-51
2022/04/12 01:39:57;;;;;;;9.90;3.40;;;4.70;99.90;;;;;;5029470;28;20451;-51
2022/04/12 01:42:23;;;;;;;8.00;3.80;;;4.60;99.90;;;;;;5026596;28;20588;-52
2022/04/12 01:44:48;;;;;;;8.63;5.10;;;4.60;99.90;;;;;;5021701;28;20823;-51
2022/04/12 01:47:15;;;;;;;11.90;3.60;;;4.50;99.90;;;;;;5005836;28;20227;-51
2022/04/12 01:49:40;;;;;;;8.70;3.80;;;4.50;99.90;;;;;;5007048;28;20277;-51
2022/04/12 01:52:06;;;;;;;8.03;3.50;;;4.50;99.90;;;;;;5009348;28;20474;-52
2022/04/12 01:54:32;;;;;;;7.50;4.00;;;4.50;99.90;;;;;;5009249;28;20176;-52
2022/04/12 01:56:57;;;;;;;5.80;3.60;;;4.50;99.90;;;;;;5008809;28;20285;-51
2022/04/12 01:59:23;;;;;;;7.63;3.80;;;4.60;99.90;;;;;;5020380;28;20186;-50
2022/04/12 02:01:49;;;;;;;8.83;4.03;;;4.60;99.90;;;;;;5013144;28;20187;-51
2022/04/12 02:04:14;;;;;;;5.60;3.47;;;4.50;99.90;;;;;;5008581;28;20188;-51
2022/04/12 02:06:40;;;;;;;3.63;3.00;;;4.50;99.90;;;;;;5011909;28;20192;-51
2022/04/12 02:09:05;;;;;;;10.30;3.73;;;4.50;99.90;;;;;;5013130;28;20184;-52
2022/04/12 02:11:31;;;;;;;5.20;3.17;;;4.50;99.90;;;;;;5013255;28;20535;-51
2022/04/12 02:13:56;;;;;;;6.20;3.43;;;4.70;99.90;;;;;;5013380;28;20199;-52
2022/04/12 02:16:23;;;;;;;8.97;3.70;;;4.60;99.90;;;;;;5012531;28;20196;-51
2022/04/12 02:18:48;;;;;;;9.17;4.63;;;4.60;99.90;;;;;;5012966;28;20210;-51
2022/04/12 02:21:14;;;;;;;5.17;3.40;;;4.60;99.90;;;;;;5029985;28;20518;-51
2022/04/12 02:23:40;;;;;;;3.83;3.40;;;4.60;99.90;;;;;;5019356;28;20494;-51
2022/04/12 02:26:05;;;;;;;11.43;3.57;;;4.60;99.90;;;;;;5013054;28;20485;-51
2022/04/12 02:28:31;;;;;;;8.63;4.03;;;4.60;99.90;;;;;;5011859;28;20274;-51
2022/04/12 02:30:56;;;;;;;4.83;3.50;;;4.60;99.90;;;;;;5012873;28;20188;-51
2022/04/12 02:33:22;;;;;;;9.00;3.80;;;4.60;99.90;;;;;;5012078;28;20536;-51
2022/04/12 02:35:47;;;;;;;8.30;3.90;;;4.60;99.90;;;;;;5012925;28;20253;-51
2022/04/12 02:38:13;;;;;;;7.30;3.77;;;4.60;99.90;;;;;;5012299;28;20683;-51
2022/04/12 02:40:38;;;;;;;10.33;3.30;;;4.50;99.90;;;;;;5012246;28;20176;-51
2022/04/12 02:43:04;;;;;;;8.13;4.30;;;4.50;99.90;;;;;;5012379;28;20218;-51
2022/04/12 02:45:30;;;;;;;5.60;3.80;;;4.50;99.90;;;;;;5013090;28;20258;-51
2022/04/12 02:47:55;;;;;;;9.63;4.23;;;4.50;99.90;;;;;;5010833;28;20685;-52
2022/04/12 02:50:22;;;;;;;7.10;3.60;;;4.50;99.90;;;;;;5011629;28;20269;-51
2022/04/12 02:52:48;;;;;;;7.83;3.90;;;4.50;99.90;;;;;;5012208;28;20190;-52
2022/04/12 02:55:14;;;;;;;12.33;3.93;;;4.50;99.90;;;;;;5010158;28;20932;-51
2022/04/12 02:57:39;;;;;;;8.67;3.70;;;4.60;99.90;;;;;;5011988;28;20466;-51
2022/04/12 03:00:06;;;;;;;7.70;3.73;;;4.60;99.90;;;;;;5011926;28;20230;-51
2022/04/12 03:02:31;;;;;;;8.40;3.20;;;4.60;99.90;;;;;;5011789;28;20665;-52
2022/04/12 03:04:57;;;;;;;7.93;3.67;;;4.60;99.90;;;;;;5012190;28;20427;-50
2022/04/12 03:07:22;;;;;;;4.60;3.83;;;4.70;99.90;;;;;;5010149;28;20203;-52
2022/04/12 03:09:49;;;;;;;7.97;3.63;;;4.70;99.90;;;;;;5010897;28;20283;-51
2022/04/12 03:12:15;;;;;;;5.83;4.03;;;4.70;99.90;;;;;;4993810;28;21841;-51
2022/04/12 03:14:40;;;;;;;7.10;4.10;;;4.70;99.90;;;;;;5011485;28;20427;-52
2022/04/12 03:17:06;;;;;;;5.97;3.87;;;4.70;99.90;;;;;;5002375;28;20302;-51
2022/04/12 03:19:31;;;;;;;7.20;3.73;;;4.70;99.90;;;;;;5011259;28;20184;-51
2022/04/12 03:21:57;;;;;;;5.50;3.70;;;4.60;99.90;;;;;;5011223;28;20192;-52
2022/04/12 03:24:22;;;;;;;9.77;4.70;;;4.60;99.90;;;;;;5011559;28;20784;-50
2022/04/12 03:26:49;;;;;;;6.33;3.90;;;4.60;99.90;;;;;;5011974;28;20275;-51
2022/04/12 03:29:16;;;;;;;7.30;4.00;;;4.60;99.90;;;;;;5011375;28;21035;-52
2022/04/12 03:31:41;;;;;;;7.57;3.70;;;4.60;99.90;;;;;;5011700;28;20640;-51
2022/04/12 03:34:07;;;;;;;5.10;3.40;;;4.60;99.90;;;;;;5011312;28;20442;-51
2022/04/12 03:36:32;;;;;;;14.33;3.97;;;4.50;99.90;;;;;;5011263;28;20322;-51
2022/04/12 03:38:58;;;;;;;5.27;3.53;;;4.50;99.90;;;;;;5010886;28;20586;-51
2022/04/12 03:41:24;;;;;;;8.37;4.20;;;4.50;99.90;;;;;;5011182;28;20188;-51
2022/04/12 03:43:51;;;;;;;6.50;3.70;;;4.60;99.90;;;;;;5011077;28;20430;-51
2022/04/12 03:46:16;;;;;;;5.90;4.20;;;4.50;99.90;;;;;;5016534;28;20226;-51
2022/04/12 03:48:43;;;;;;;6.67;4.60;;;4.50;99.90;;;;;;5030229;28;20479;-51
2022/04/12 03:51:09;;;;;;;9.43;3.73;;;4.40;99.90;;;;;;5012860;28;20425;-52
2022/04/12 03:53:36;;;;;;;6.77;4.00;;;4.40;99.90;;;;;;5030371;28;20418;-52
2022/04/12 03:56:09;;;;;;;5.97;3.70;;;4.40;99.90;;;;;;5031064;28;20741;-52
2022/04/12 03:58:37;;;;;;;8.47;4.10;;;4.40;99.90;;;;;;5030706;28;20461;-52
2022/04/12 04:01:04;;;;;;;4.73;3.50;;;4.30;99.90;;;;;;5028390;28;20876;-52
2022/04/12 04:03:31;;;;;;;5.93;3.97;;;4.30;99.90;;;;;;5030716;28;20426;-52
2022/04/12 04:05:56;;;;;;;9.50;3.90;;;4.40;99.90;;;;;;5029823;28;20429;-52
2022/04/12 04:08:22;;;;;;;6.00;3.67;;;4.40;99.90;;;;;;5030445;28;20190;-51
2022/04/12 04:10:48;;;;;;;7.40;4.30;;;4.40;99.90;;;;;;5030333;28;20641;-51
2022/04/12 04:13:14;;;;;;;7.60;3.87;;;4.40;99.90;;;;;;5030171;28;20213;-51
2022/04/12 04:15:41;;;;;;;8.17;4.10;;;4.30;99.90;;;;;;5030285;28;20217;-51
2022/04/12 04:18:07;;;;;;;8.20;4.00;;;4.30;99.90;;;;;;5029923;28;20790;-51
2022/04/12 04:20:33;;;;;;;9.23;3.93;;;4.30;99.90;;;;;;5030247;28;20414;-51
2022/04/12 04:22:59;;;;;;;6.30;3.73;;;4.30;99.90;;;;;;5029810;28;20429;-52
2022/04/12 04:25:25;;;;;;;8.50;3.50;;;4.30;99.90;;;;;;5030240;28;20764;-51
2022/04/12 04:27:52;;;;;;;3.70;3.10;;;4.40;99.90;;;;;;5029761;28;20495;-51
2022/04/12 04:30:19;;;;;;;7.00;4.20;;;4.40;99.90;;;;;;5028551;28;20487;-51
2022/04/12 04:32:44;;;;;;;8.03;3.60;;;4.40;99.90;;;;;;5012094;28;20437;-52
2022/04/12 04:35:10;;;;;;;5.20;3.40;;;4.40;99.90;;;;;;5030301;28;20954;-52
2022/04/12 04:37:46;;;;;;;9.90;4.30;;;4.40;99.90;;;;;;5030839;28;20281;-51
2022/04/12 04:40:21;;;;;;;5.37;3.77;;;4.50;99.90;;;;;;5030477;28;20183;-52
2022/04/12 04:42:49;;;;;;;5.47;4.20;;;4.50;99.90;;;;;;5029845;28;20456;-51
2022/04/12 04:45:15;;;;;;;7.47;3.97;;;4.50;99.90;;;;;;5030764;28;20471;-52
2022/04/12 04:47:50;;;;;;;5.73;4.00;;;4.50;99.90;;;;;;5020163;28;20987;-51
2022/04/12 04:50:18;;;;;;;7.03;4.40;;;4.50;99.90;;;;;;5024307;28;20426;-51
2022/04/12 04:52:43;;;;;;;9.13;3.97;;;4.60;99.90;;;;;;5029105;28;20965;-51
2022/04/12 04:55:09;;;;;;;9.50;4.90;;;4.60;99.90;;;;;;5030057;28;20512;-51
2022/04/12 04:57:42;;;;;;;5.70;3.87;;;4.60;99.90;;;;;;5034408;28;20464;-51
2022/04/12 05:00:16;;;;;;;6.80;3.50;;;4.70;99.90;;;;;;5038901;28;20221;-51
2022/04/12 05:02:46;;;;;;;8.20;3.63;;;4.80;99.90;;;;;;5034127;28;20526;-52
2022/04/12 05:05:12;;;;;;;7.00;4.07;;;4.80;99.90;;;;;;5027598;28;20421;-51
2022/04/12 05:07:39;;;;;;;10.17;4.40;;;4.80;99.90;;;;;;5028706;28;20441;-52
2022/04/12 05:10:05;;;;;;;5.33;3.63;;;4.80;99.90;;;;;;5029516;28;20444;-52
2022/04/12 05:12:30;;;;;;;10.20;4.63;;;4.90;99.90;;;;;;5026576;28;20473;-52
2022/04/12 05:14:56;;;;;;;7.93;4.63;;;5.00;99.90;;;;;;5029317;28;21105;-51
2022/04/12 05:17:26;;;;;;;7.50;4.43;;;5.00;99.90;;;;;;5012168;28;20203;-51
2022/04/12 05:19:52;;;;;;;8.50;4.40;;;5.10;99.90;;;;;;5029358;28;21051;-52
2022/04/12 05:22:18;;;;;;;17.20;4.53;;;5.20;99.90;;;;;;5029342;28;20430;-51
2022/04/12 05:24:45;;;;;;;7.60;4.97;;;5.20;99.90;;;;;;5029452;28;20168;-51
2022/04/12 05:27:11;;;;;;;7.97;4.67;;;5.30;99.90;;;;;;5029799;28;20417;-51
2022/04/12 05:29:37;;;;;;;7.60;4.50;;;5.30;99.90;;;;;;5029153;28;20444;-51
2022/04/12 05:32:03;;;;;;;7.60;4.17;;;5.30;99.90;;;;;;5030154;28;20858;-51
2022/04/12 05:34:28;;;;;;;8.30;4.77;;;5.50;99.90;;;;;;5028769;28;20436;-52
2022/04/12 05:36:54;;;;;;;7.10;4.47;;;5.40;99.90;;;;;;5026916;28;20473;-51
2022/04/12 05:39:19;;;;;;;9.03;4.90;;;5.60;99.90;;;;;;5028136;28;20179;-51
2022/04/12 05:41:45;;;;;;;8.70;5.10;;;5.60;99.90;;;;;;4994893;28;20183;-51
2022/04/12 05:44:10;;;;;;;9.60;4.50;;;5.60;99.90;;;;;;5029160;28;20199;-51
2022/04/12 05:46:36;;;;;;;5.80;4.70;;;5.70;99.90;;;;;;5026933;28;20234;-52
2022/04/12 05:49:01;;;;;;;11.80;4.63;;;5.70;99.90;;;;;;5029260;28;20187;-51
2022/04/12 05:51:27;;;;;;;11.63;4.93;;;5.80;99.90;;;;;;5011812;28;20266;-51
2022/04/12 05:53:53;;;;;;;7.80;4.60;;;5.90;99.90;;;;;;5018884;28;20281;-51
2022/04/12 05:56:18;;;;;;;7.07;4.80;;;6.00;99.90;;;;;;5035803;28;20426;-51
2022/04/12 05:58:44;;;;;;;9.37;5.10;;;6.10;99.90;;;;;;5029416;28;20175;-51
2022/04/12 06:01:10;;;;;;;9.33;4.70;;;6.20;99.90;;;;;;5029784;28;20229;-50
2022/04/12 06:03:35;;;;;;;7.73;4.67;;;6.20;99.90;;;;;;5028683;28;20186;-51
2022/04/12 06:06:01;;;;;;;9.37;5.17;;;6.30;99.90;;;;;;5039662;28;21747;-50
2022/04/12 06:08:26;;;;;;;9.73;4.90;;;6.40;99.90;;;;;;5028899;28;20560;-51
2022/04/12 06:10:53;;;;;;;9.33;4.43;;;6.40;99.90;;;;;;5030132;28;20179;-51
2022/04/12 06:13:19;;;;;;;11.40;5.27;;;6.50;99.90;;;;;;5026634;28;20195;-50
2022/04/12 06:15:45;;;;;;;8.50;4.77;;;6.60;99.90;;;;;;5022100;28;20453;-51
2022/04/12 06:18:11;;;;;;;5.10;4.47;;;6.60;99.90;;;;;;5028710;28;20826;-50
2022/04/12 06:20:37;;;;;;;7.50;4.60;;;6.70;99.90;;;;;;5028925;28;20266;-50
2022/04/12 06:23:04;;;;;;;11.73;5.00;;;6.70;99.90;;;;;;5029099;28;20257;-50
2022/04/12 06:25:29;;;;;;;7.27;5.00;;;6.80;99.90;;;;;;5028958;28;20432;-47
2022/04/12 06:27:55;;;;;;;6.20;4.63;;;6.70;99.90;;;;;;5028314;28;20430;-47
2022/04/12 06:30:27;;;;;;;8.23;4.87;;;6.80;99.90;;;;;;5029285;28;20187;-47
2022/04/12 06:32:53;;;;;;;8.80;4.73;;;6.80;99.90;;;;;;5028229;28;20261;-47
2022/04/12 06:35:19;;;;;;;7.47;4.60;;;6.90;99.90;;;;;;5028684;28;20426;-47
2022/04/12 06:37:46;;;;;;;7.27;4.87;;;7.00;99.90;;;;;;5026646;28;20473;-47
2022/04/12 06:40:15;;;;;;;7.70;4.90;;;7.10;99.90;;;;;;5029285;28;20445;-47
2022/04/12 06:42:40;;;;;;;9.53;5.40;;;7.20;99.90;;;;;;5026709;28;20998;-47
2022/04/12 06:45:08;;;;;;;10.30;4.80;;;7.30;99.90;;;;;;5028444;28;20479;-47
2022/04/12 06:47:34;;;;;;;7.67;4.50;;;7.40;99.90;;;;;;5017994;28;20235;-47
2022/04/12 06:50:00;;;;;;;10.87;4.87;;;7.50;99.90;;;;;;4973019;28;20443;-47
2022/04/12 06:52:27;;;;;;;6.70;5.00;;;7.50;99.90;;;;;;5011458;28;20909;-47
2022/04/12 06:54:52;;;;;;;7.20;4.53;;;7.60;99.90;;;;;;5010680;28;20435;-47
2022/04/12 06:57:18;;;;;;;9.93;5.20;;;7.70;99.90;;;;;;5001529;28;20307;-48
2022/04/12 06:59:44;;;;;;;10.87;4.97;;;7.80;99.90;;;;;;5015198;28;20187;-47
2022/04/12 07:02:10;;;;;;;9.30;5.07;;;7.80;99.90;;;;;;5025526;28;20657;-48
2022/04/12 07:04:36;;;;;;;7.40;4.67;;;7.90;99.90;;;;;;5012064;28;20199;-47
2022/04/12 07:07:02;;;;;;;9.97;4.67;;;8.00;99.90;;;;;;5011647;28;20426;-47
2022/04/12 07:09:29;;;;;;;6.70;4.70;;;8.00;99.90;;;;;;4994030;28;20198;-47
2022/04/12 07:11:57;;;;;;;8.10;5.17;;;8.10;99.90;;;;;;5005874;28;20434;-47
2022/04/12 07:14:23;;;;;;;12.13;4.90;;;8.20;99.90;;;;;;5017574;28;20434;-47
2022/04/12 07:16:48;;;;;;;8.03;4.70;;;8.40;99.90;;;;;;5011857;28;20489;-47
2022/04/12 07:19:14;;;;;;;11.40;5.43;;;8.60;99.90;;;;;;5018803;28;20430;-48
2022/04/12 07:21:40;;;;;;;10.77;4.10;;;8.80;99.90;;;;;;5018221;28;20219;-48
2022/04/12 07:24:06;;;;;;;5.90;4.40;;;8.90;99.90;;;;;;5017151;28;20183;-47
2022/04/12 07:26:32;;;;;;;8.83;4.83;;;9.00;99.90;;;;;;4995869;28;20278;-47
2022/04/12 07:28:58;;;;;;;10.03;4.23;;;9.10;99.90;;;;;;5030817;28;20429;-47
2022/04/12 07:31:24;;;;;;;7.90;4.63;;;9.20;99.90;;;;;;5031841;28;20414;-47
2022/04/12 07:33:50;;;;;;;9.00;4.47;;;9.40;99.90;;;;;;5013118;28;20485;-47
2022/04/12 07:36:15;;;;;;;7.70;4.40;;;9.40;99.90;;;;;;5011695;28;20414;-48
2022/04/12 07:38:42;;;;;;;7.03;4.50;;;9.50;99.90;;;;;;5011750;28;20207;-47
2022/04/12 07:41:09;;;;;;;10.10;4.67;;;9.70;99.90;;;;;;5025270;28;20768;-47
2022/04/12 07:43:35;;;;;;;5.80;4.00;;;10.00;99.90;;;;;;5011918;28;20427;-47
2022/04/12 07:46:00;;;;;;;6.77;4.20;;;10.30;99.90;;;;;;5009464;28;20457;-47
2022/04/12 07:48:26;;;;;;;6.50;3.93;;;10.60;99.90;;;;;;5036250;28;20450;-47
2022/04/12 07:50:54;;;;;;;8.10;4.47;;;10.90;99.90;;;;;;5044987;28;20186;-47
2022/04/12 07:53:19;;;;;;;7.93;4.27;;;11.10;99.90;;;;;;5028981;28;20183;-48
2022/04/12 07:55:45;;;;;;;6.77;4.23;;;11.40;99.90;;;;;;5030483;28;20950;-47
2022/04/12 07:58:10;;;;;;;9.97;4.53;;;11.50;99.90;;;;;;5031260;28;20221;-47
2022/04/12 08:00:36;;;;;;;6.83;4.13;;;11.80;99.90;;;;;;5037293;28;20261;-47
2022/04/12 08:03:01;;;;;;;6.53;4.20;;;12.00;99.90;;;;;;5030083;28;20539;-47
2022/04/12 08:05:27;;;;;;;8.10;4.10;;;11.80;99.90;;;;;;5028687;28;20194;-47
2022/04/12 08:07:52;;;;;;;13.23;4.70;;;11.90;99.90;;;;;;5030190;28;20228;-49
2022/04/12 08:10:19;;;;;;;11.03;4.07;;;11.90;99.90;;;;;;5031033;28;20183;-47
2022/04/12 08:12:46;;;;;;;9.33;4.37;;;11.90;99.90;;;;;;5039566;28;20200;-47
2022/04/12 08:15:14;;;;;;;9.37;4.40;;;12.00;99.90;;;;;;5018577;28;20509;-47
2022/04/12 08:17:40;;;;;;;6.30;3.80;;;12.00;99.90;;;;;;5028868;28;20470;-47
2022/04/12 08:20:06;;;;;;;6.57;4.20;;;12.00;99.90;;;;;;5010740;28;20792;-47
2022/04/12 08:22:33;;;;;;;6.80;3.87;;;12.20;99.90;;;;;;5040617;28;20193;-47
2022/04/12 08:24:59;;;;;;;6.67;4.30;;;12.40;99.90;;;;;;5012416;28;20591;-48
2022/04/12 08:27:25;;;;;;;8.10;4.33;;;12.50;99.90;;;;;;5036923;28;20936;-47
2022/04/12 08:29:51;;;;;;;6.17;4.00;;;12.80;99.90;;;;;;5030216;28;20429;-47
2022/04/12 08:32:17;;;;;;;7.67;5.03;;;13.10;99.90;;;;;;5029923;28;20426;-47
2022/04/12 08:34:43;;;;;;;5.63;4.20;;;13.30;99.90;;;;;;5028899;28;20305;-47
2022/04/12 08:37:09;;;;;;;4.87;4.20;;;13.40;99.90;;;;;;5030522;28;20838;-47
2022/04/12 08:39:35;;;;;;;7.80;4.03;;;13.60;99.90;;;;;;5030345;28;20513;-47
2022/04/12 08:42:03;;;;;;;7.07;4.30;;;13.90;99.90;;;;;;5028048;28;20562;-47
2022/04/12 08:44:30;;;;;;;8.37;4.73;;;14.10;99.90;;;;;;5011064;28;20233;-47
2022/04/12 08:46:57;;;;;;;7.80;4.10;;;14.50;99.90;;;;;;5034824;28;20473;-47
2022/04/12 08:49:27;;;;;;;5.67;4.47;;;14.70;99.90;;;;;;5030095;28;20436;-47
2022/04/12 08:51:52;;;;;;;5.17;3.90;;;14.90;99.90;;;;;;5030491;28;20919;-47
2022/04/12 08:54:18;;;;;;;6.30;4.03;;;15.40;99.90;;;;;;5029004;28;20556;-47
2022/04/12 08:56:46;;;;;;;11.33;3.83;;;15.80;99.90;;;;;;5008492;28;20664;-47
2022/04/12 08:59:12;;;;;;;6.03;3.90;;;15.90;99.90;;;;;;5030266;28;20268;-47
2022/04/12 09:01:39;;;;;;;5.10;4.30;;;16.10;99.90;;;;;;5027856;28;20487;-47
2022/04/12 09:04:04;;;;;;;5.80;3.87;;;16.40;99.90;;;;;;5030065;28;20241;-47
2022/04/12 09:06:30;;;;;;;8.87;4.70;;;16.30;99.90;;;;;;5029843;28;20422;-47
2022/04/12 09:09:10;;;;;;;9.00;4.70;;;16.10;99.90;;;;;;5036511;28;20186;-47
2022/04/12 09:11:35;;;;;;;7.87;4.77;;;15.80;99.90;;;;;;5012611;28;20190;-47
2022/04/12 09:14:01;;;;;;;9.27;4.93;;;16.10;99.90;;;;;;5030069;28;20414;-47
2022/04/12 09:16:28;;;;;;;7.77;4.33;;;16.20;99.90;;;;;;5019770;28;20476;-47
2022/04/12 09:18:54;;;;;;;9.27;5.03;;;16.50;99.90;;;;;;5038281;28;20548;-47
2022/04/12 09:21:25;;;;;;;5.93;4.87;;;16.60;99.90;;;;;;5029856;28;20409;-47
2022/04/12 09:23:55;;;;;;;13.90;5.47;;;16.80;99.90;;;;;;5028884;28;20425;-47
2022/04/12 09:26:28;;;;;;;8.67;4.57;;;16.90;99.90;;;;;;5028024;28;20438;-47
2022/04/12 09:28:59;;;;;;;6.10;5.17;;;17.10;99.90;;;;;;5029592;28;20851;-48
2022/04/12 09:31:25;;;;;;;6.10;4.90;;;17.30;99.90;;;;;;5034010;28;20453;-47
2022/04/12 09:33:52;;;;;;;15.40;6.00;;;17.00;99.90;;;;;;5029942;28;20524;-47
2022/04/12 09:36:18;;;;;;;9.00;5.73;;;16.60;99.90;;;;;;5026203;28;20974;-47
2022/04/12 09:38:45;;;;;;;6.80;5.43;;;16.30;99.90;;;;;;5029534;28;20469;-47
2022/04/12 09:41:11;;;;;;;11.37;7.10;;;16.10;99.90;;;;;;5026311;28;20233;-48
2022/04/12 09:43:50;;;;;;;11.93;6.50;;;16.20;99.90;;;;;;5027483;28;20438;-47
2022/04/12 09:46:16;;;;;;;8.97;5.77;;;16.20;99.90;;;;;;5029907;28;20465;-47
2022/04/12 09:48:46;;;;;;;10.20;5.37;;;16.30;99.90;;;;;;5029336;28;20509;-47
2022/04/12 09:51:12;;;;;;;12.30;5.43;;;16.30;99.90;;;;;;5026289;28;20195;-47
2022/04/12 09:53:40;;;;;;;9.93;6.13;;;16.50;99.90;;;;;;5029377;28;20448;-47
2022/04/12 09:56:33;;;;;;;12.10;5.73;;;16.40;99.90;;;;;;5027760;28;20433;-47
2022/04/12 09:59:06;;;;;;;6.37;4.73;;;16.50;99.90;;;;;;5017032;28;20441;-47
2022/04/12 10:01:39;;;;;;;8.73;5.23;;;16.40;99.90;;;;;;5014827;28;20472;-47
2022/04/12 10:04:09;;;;;;;7.30;5.90;;;16.40;99.90;;;;;;5028237;28;20398;-47
2022/04/12 10:06:42;;;;;;;10.30;5.93;;;16.10;99.90;;;;;;5029509;28;20460;-47
2022/04/12 10:09:13;;;;;;;8.03;5.60;;;15.90;99.90;;;;;;5010146;28;20449;-47
2022/04/12 10:11:39;;;;;;;7.63;5.80;;;15.70;99.90;;;;;;5022294;28;20440;-48
2022/04/12 10:14:05;;;;;;;9.57;6.10;;;15.70;99.90;;;;;;5029608;28;20422;-48
2022/04/12 10:16:32;;;;;;;10.43;5.90;;;15.70;99.90;;;;;;5028187;28;20441;-47
2022/04/12 10:19:00;;;;;;;8.47;5.97;;;15.60;99.90;;;;;;5028934;28;20417;-48
2022/04/12 10:21:26;;;;;;;8.87;6.30;;;15.40;99.90;;;;;;5028874;28;20464;-47
2022/04/12 10:23:55;;;;;;;10.70;6.50;;;15.40;99.90;;;;;;5011905;28;20920;-47
2022/04/12 10:26:23;;;;;;;13.47;6.27;;;15.60;99.90;;;;;;5030809;28;20445;-48
2022/04/12 10:29:07;;;;;;;7.87;5.67;;;15.80;99.90;;;;;;5032287;28;20912;-48
2022/04/12 10:31:33;;;;;;;8.80;6.10;;;15.80;99.90;;;;;;5033741;28;20788;-48
2022/04/12 10:34:01;;;;;;;11.40;6.70;;;15.60;99.90;;;;;;5033703;28;20418;-48
2022/04/12 10:36:55;;;;;;;18.73;6.50;;;15.50;99.90;;;;;;5033096;28;20183;-48
2022/04/12 10:39:49;;;;;;;9.10;6.33;;;15.50;99.90;;;;;;5020520;28;20432;-47
2022/04/12 10:42:23;;;;;;;9.53;5.90;;;15.50;99.90;;;;;;5024141;28;20491;-48
2022/04/12 10:44:56;;;;;;;11.40;6.57;;;15.80;99.90;;;;;;5011546;28;20793;-47
2022/04/12 10:47:22;;;;;;;9.33;5.93;;;16.20;99.90;;;;;;5033407;28;20916;-48
2022/04/12 10:49:53;;;;;;;10.60;6.00;;;16.70;99.90;;;;;;5030679;28;21103;-48
2022/04/12 10:52:19;;;;;;;8.80;6.03;;;16.80;99.90;;;;;;5027653;28;20506;-48
2022/04/12 10:54:48;;;;;;;11.17;6.73;;;16.80;99.90;;;;;;5032357;28;20808;-48
2022/04/12 10:57:20;;;;;;;15.03;6.87;;;16.80;99.90;;;;;;5033053;28;20199;-48
2022/04/12 10:59:54;;;;;;;10.43;6.57;;;17.10;99.90;;;;;;5014860;28;20448;-48
2022/04/12 11:02:20;;;;;;;10.70;7.13;;;17.50;99.90;;;;;;5032912;28;20406;-48
2022/04/12 11:04:46;;;;;;;9.53;6.50;;;17.60;99.90;;;;;;5014958;28;20475;-48
2022/04/12 11:07:29;;;;;;;10.50;6.60;;;18.00;99.90;;;;;;5032250;28;20422;-49
2022/04/12 11:10:26;;;;;;;10.73;6.77;;;18.30;99.90;;;;;;5033387;28;20210;-50
2022/04/12 11:13:11;;;;;;;9.03;6.67;;;18.50;99.90;;;;;;5008551;28;20540;-49
2022/04/12 11:15:40;;;;;;;11.73;7.00;;;18.70;99.90;;;;;;5030733;28;20495;-50
2022/04/12 11:18:13;;;;;;;10.20;6.90;;;18.60;99.90;;;;;;5030742;28;20816;-50
2022/04/12 11:20:43;;;;;;;11.67;7.07;;;19.10;99.90;;;;;;5028838;28;20440;-49
2022/04/12 11:23:12;;;;;;;10.70;6.70;;;19.40;99.90;;;;;;5032537;28;20456;-50
2022/04/12 11:25:49;;;;;;;8.30;6.00;;;19.80;99.90;;;;;;5032623;28;20426;-51
2022/04/12 11:28:22;;;;;;;12.27;6.70;;;20.00;99.90;;;;;;5032874;28;20429;-51
2022/04/12 11:30:56;;;;;;;12.30;7.20;;;20.50;99.90;;;;;;5031370;28;20429;-52
2022/04/12 11:33:29;;;;;;;11.07;7.37;;;20.90;99.90;;;;;;5032377;28;20452;-51
2022/04/12 11:35:58;;;;;;;8.97;6.97;;;20.60;99.90;;;;;;5032404;28;20421;-50
2022/04/12 11:38:24;;;;;;;11.53;6.67;;;20.50;99.90;;;;;;5029862;28;20527;-50
2022/04/12 11:40:50;;;;;;;13.17;7.37;;;20.70;99.90;;;;;;5033248;28;20457;-52
2022/04/12 11:43:20;;;;;;;11.60;7.23;;;20.80;99.90;;;;;;5031458;28;20805;-50
2022/04/12 11:45:46;;;;;;;10.40;7.20;;;20.70;99.90;;;;;;5031084;28;20568;-50
2022/04/12 11:48:12;;;;;;;11.03;6.80;;;21.10;99.90;;;;;;5031221;28;20816;-50
2022/04/12 11:50:37;;;;;;;10.50;7.77;;;21.30;99.90;;;;;;5026233;28;20500;-51
2022/04/12 11:53:04;;;;;;;9.00;6.70;;;21.20;99.90;;;;;;5029147;28;20213;-51
2022/04/12 11:55:36;;;;;;;11.43;7.30;;;20.90;99.90;;;;;;5030813;28;20686;-50
2022/04/12 11:58:02;;;;;;;15.63;7.73;;;20.90;99.90;;;;;;5044372;28;20477;-51
2022/04/12 12:00:29;;;;;;;10.70;7.80;;;21.00;99.90;;;;;;5030607;28;20426;-50
2022/04/12 12:02:55;;;;;;;13.47;7.47;;;21.00;99.90;;;;;;5031385;28;20205;-51
2022/04/12 12:05:21;;;;;;;14.10;7.03;;;21.30;99.90;;;;;;5036050;28;20947;-49
2022/04/12 12:07:47;;;;;;;9.60;6.87;;;21.60;99.90;;;;;;5028697;28;20249;-52
2022/04/12 12:10:15;;;;;;;13.10;6.73;;;22.10;99.90;;;;;;5028690;28;20939;-51
2022/04/12 12:12:48;;;;;;;10.10;7.40;;;22.40;99.90;;;;;;5030686;28;20198;-51
2022/04/12 12:15:20;;;;;;;9.93;7.40;;;22.80;99.90;;;;;;5029269;28;20445;-51
2022/04/12 12:17:46;;;;;;;10.37;7.30;;;21.90;99.90;;;;;;5010572;28;20473;-51
2022/04/12 12:20:13;;;;;;;11.33;7.33;;;21.40;99.90;;;;;;5028199;28;20524;-51
2022/04/12 12:22:41;;;;;;;13.67;7.90;;;21.60;99.90;;;;;;5028759;28;20767;-52
2022/04/12 12:25:07;;;;;;;10.57;7.10;;;21.50;99.90;;;;;;5030630;28;20448;-52
2022/04/12 12:27:35;;;;;;;12.00;7.30;;;21.50;99.90;;;;;;5025960;28;20469;-51
2022/04/12 12:30:05;;;;;;;11.77;7.57;;;21.50;99.90;;;;;;5026718;28;20456;-51
2022/04/12 12:32:35;;;;;;;10.70;7.23;;;21.40;99.90;;;;;;5012024;28;21257;-51
2022/04/12 12:35:23;;;;;;;13.50;8.17;;;21.40;99.90;;;;;;5023389;28;20454;-51
2022/04/12 12:37:49;;;;;;;10.53;6.90;;;21.40;99.90;;;;;;5030193;28;20474;-51
2022/04/12 12:40:22;;;;;;;9.90;7.50;;;21.70;99.90;;;;;;5029635;28;20920;-51
2022/04/12 12:42:49;;;;;;;10.77;7.80;;;21.60;99.90;;;;;;5030846;28;20234;-50
2022/04/12 12:45:17;;;;;;;11.30;7.73;;;21.30;99.90;;;;;;5030927;28;20445;-52
2022/04/12 12:47:46;;;;;;;12.33;7.37;;;20.80;99.90;;;;;;5030206;28;20492;-52
2022/04/12 12:50:15;;;;;;;12.73;8.00;;;20.70;99.90;;;;;;5029175;28;20429;-51
2022/04/12 12:52:43;;;;;;;11.60;7.70;;;20.90;99.90;;;;;;5030579;28;20434;-51
2022/04/12 12:55:15;;;;;;;9.10;6.90;;;21.10;99.90;;;;;;5030315;28;20524;-51